tititudorancea.com
Station Historical Data
Daily Summary for October 19, 2018 Units:  Metric    English   Both
« Previous Day
Next Day »
Daily Weekly Monthly Yearly Custom
  High: Low: Average:
Temperature: -17.8 °C 9.3 °C 18.7 °C
Dew Point: -17.8 °C 4.6 °C 7.9 °C
Humidity: Humidity % 25 % 57 %
Wind Speed: 0 km/h 0 km/h 14.8 km/h
Wind Gust: 0 km/h - -
Wind:- - WSW
Pressure: 0 hPa 1004.3 hPa -
Precipitation: 0 mm    
Historical Graphs
 
 
Ararat weather Find more about Weather in Ararat, AU


 



 


Tabular Data for October 19, 2018
Time Temperature Dew Point Pressure Wind Wind Speed Wind Gust Humidity Rainfall Rate (Hourly)
-17.8 °C -17.8 °C 0 hPa Calm     Humidity % 0 mm
00:04 14.1 °C 11.4 °C 1015.1 hPa NNW 9.3 km/h 6.1 km/h 84 % 0 mm
00:09 14.1 °C 11.4 °C 1015.1 hPa NNW 5.6 km/h 3.9 km/h 84 % 0 mm
00:14 14.1 °C 11.4 °C 1015.1 hPa NNW 5.6 km/h 3.2 km/h 84 % 0 mm
00:19 14 °C 11.3 °C 1015.1 hPa North 9.3 km/h 2.4 km/h 84 % 0 mm
00:24 13.9 °C 11.3 °C 1014.8 hPa North 5.6 km/h 5.1 km/h 84 % 0 mm
00:29 13.9 °C 11.4 °C 1014.8 hPa NNW 5.6 km/h 5 km/h 85 % 0 mm
00:34 13.9 °C 11.4 °C 1014.8 hPa NNW 5.6 km/h 4 km/h 85 % 0 mm
00:39 13.9 °C 11.4 °C 1014.8 hPa NNW 6.4 km/h 4.7 km/h 85 % 0 mm
00:44 13.8 °C 11.3 °C 1014.8 hPa NNW 5.6 km/h 4.5 km/h 85 % 0 mm
00:49 13.7 °C 11.2 °C 1014.8 hPa NNW 6.4 km/h 4.8 km/h 85 % 0 mm
00:54 13.6 °C 11.3 °C 1014.8 hPa NNW 5.6 km/h 5 km/h 86 % 0 mm
00:59 13.5 °C 11.2 °C 1014.8 hPa NNW 5.6 km/h 1.3 km/h 86 % 0 mm
01:04 13.3 °C 11.1 °C 1014.4 hPa NNW 3.2 km/h 1.4 km/h 86 % 0 mm
01:09 13.2 °C 10.9 °C 1014.4 hPa NNW 5.6 km/h 3.1 km/h 86 % 0 mm
01:14 13.1 °C 10.8 °C 1014.4 hPa NNW 3.7 km/h 2.7 km/h 86 % 0 mm
01:19 12.9 °C 10.8 °C 1014.4 hPa NNW 1.9 km/h   87 % 0 mm
01:24 12.8 °C 10.7 °C 1014.4 hPa NNW 1.6 km/h 0.5 km/h 87 % 0 mm
01:29 12.7 °C 10.6 °C 1014.4 hPa NNW 3.7 km/h 2.3 km/h 87 % 0 mm
01:34 12.5 °C 10.4 °C 1014.4 hPa NNW 1.6 km/h 1.4 km/h 87 % 0 mm
01:39 12.3 °C 10.3 °C 1014.1 hPa NNW 5.6 km/h 2.1 km/h 88 % 0 mm
01:44 12.1 °C 10.2 °C 1014.1 hPa NNW 5.6 km/h 3.1 km/h 88 % 0 mm
01:49 11.9 °C 10.2 °C 1014.1 hPa NNW 5.6 km/h 3.9 km/h 89 % 0 mm
01:54 11.8 °C 10.1 °C 1014.1 hPa NNW 5.6 km/h 2.7 km/h 89 % 0 mm
01:59 11.7 °C 9.9 °C 1013.8 hPa NNW 5.6 km/h 2.1 km/h 89 % 0 mm
02:04 11.7 °C 10.1 °C 1013.8 hPa NNW 5.6 km/h 1.6 km/h 90 % 0 mm
02:09 11.6 °C 9.9 °C 1013.8 hPa NNW 3.7 km/h 1 km/h 90 % 0 mm
02:14 11.5 °C 9.9 °C 1013.8 hPa NNW 3.7 km/h 1.9 km/h 90 % 0 mm
02:19 11.4 °C 9.8 °C 1013.8 hPa NNW 3.7 km/h 1.4 km/h 90 % 0 mm
02:24 11.4 °C 9.8 °C 1013.8 hPa Calm     90 % 0 mm
02:29 11.2 °C 9.7 °C 1013.8 hPa NNW 5.6 km/h 1.6 km/h 90 % 0 mm
02:34 11.1 °C 9.6 °C 1013.4 hPa NNW 3.2 km/h 2.3 km/h 90 % 0 mm
02:39 11 °C 9.6 °C 1013.4 hPa NNW 3.7 km/h 3.2 km/h 91 % 0 mm
02:44 10.9 °C 9.5 °C 1013.4 hPa North 3.7 km/h 1.9 km/h 91 % 0 mm
02:49 10.8 °C 9.4 °C 1013.1 hPa North 5.6 km/h 1.3 km/h 91 % 0 mm
02:54 10.7 °C 9.3 °C 1013.1 hPa NNW 3.7 km/h 2.1 km/h 91 % 0 mm
02:59 10.7 °C 9.4 °C 1013.1 hPa NNW 5.6 km/h 3.2 km/h 92 % 0 mm
03:04 10.7 °C 9.4 °C 1013.1 hPa North 3.7 km/h 3.2 km/h 92 % 0 mm
03:09 10.6 °C 9.4 °C 1013.1 hPa NNW 3.7 km/h 2.7 km/h 92 % 0 mm
03:14 10.4 °C 9.2 °C 1013.1 hPa NNW 6.4 km/h 5.5 km/h 92 % 0 mm
03:19 10.3 °C 9.1 °C 1013.1 hPa NNW 5.6 km/h 3.1 km/h 92 % 0 mm
03:24 10.2 °C 9 °C 1013.1 hPa North 3.7 km/h 2.4 km/h 92 % 0 mm
03:29 10.3 °C 9.2 °C 1013.1 hPa NNW 5.6 km/h 4.7 km/h 93 % 0 mm
03:34 10.2 °C 9.2 °C 1013.1 hPa NNW 5.6 km/h 4.3 km/h 93 % 0 mm
03:39 10.2 °C 9.2 °C 1013.1 hPa NNW 5.6 km/h 4.2 km/h 93 % 0 mm
03:44 10.2 °C 9.2 °C 1012.8 hPa NNW 5.6 km/h 1.8 km/h 93 % 0 mm
03:49 10.3 °C 9.2 °C 1013.1 hPa NNW 5.6 km/h 3.7 km/h 93 % 0 mm
03:54 10.4 °C 9.3 °C 1012.8 hPa NNW 7.4 km/h 2.1 km/h 93 % 0 mm
03:59 10.4 °C 9.3 °C 1013.1 hPa NNW 6.4 km/h 4.3 km/h 93 % 0 mm
04:04 10.4 °C 9.3 °C 1013.1 hPa NNW 6.4 km/h 4.2 km/h 93 % 0 mm
04:09 10.4 °C 9.3 °C 1013.1 hPa North 5.6 km/h 2.6 km/h 93 % 0 mm
04:14 10.5 °C 9.6 °C 1013.1 hPa NNW 5.6 km/h 3.1 km/h 94 % 0 mm
04:19 10.5 °C 9.4 °C 1013.1 hPa NNW 5.6 km/h 1.6 km/h 93 % 0 mm
04:24 10.4 °C 9.3 °C 1013.1 hPa NNW 3.7 km/h 2.6 km/h 93 % 0 mm
04:29 10.2 °C 9.2 °C 1013.1 hPa North 5.6 km/h 2.1 km/h 93 % 0 mm
04:34 9.9 °C 8.9 °C 1013.1 hPa NNW 1.9 km/h   93 % 0 mm
04:39 9.7 °C 8.6 °C 1013.1 hPa NNW 3.2 km/h 1 km/h 93 % 0 mm
04:44 9.5 °C 8.4 °C 1013.1 hPa North 5.6 km/h 3.5 km/h 93 % 0 mm
04:49 9.4 °C 8.3 °C 1013.1 hPa NNW 1.6 km/h 2.1 km/h 93 % 0 mm
04:54 9.3 °C 8.2 °C 1013.1 hPa North 5.6 km/h 2.7 km/h 93 % 0 mm
04:59 9.6 °C 8.8 °C 1013.1 hPa North 7.4 km/h 3.2 km/h 95 % 0 mm
05:04 10.2 °C 9.4 °C 1013.1 hPa North 9.3 km/h 3.7 km/h 95 % 0 mm
05:09 10.4 °C 9.4 °C 1013.1 hPa North 7.4 km/h 5.5 km/h 94 % 0 mm
05:14 10.4 °C 9.5 °C 1013.1 hPa NNW 9.3 km/h 4.5 km/h 94 % 0 mm
05:19 10.5 °C 9.6 °C 1012.8 hPa NNW 7.4 km/h 6.4 km/h 94 % 0 mm
05:24 10.4 °C 9.5 °C 1012.8 hPa NNW 7.4 km/h 5 km/h 94 % 0 mm
05:29 10.4 °C 9.4 °C 1013.1 hPa NNW 13 km/h 6.4 km/h 94 % 0 mm
05:34 10.4 °C 9.4 °C 1013.1 hPa NNW 13 km/h 9.5 km/h 94 % 0 mm
05:39 10.4 °C 9.5 °C 1013.1 hPa NNW 9.7 km/h 8.5 km/h 94 % 0 mm
05:44 10.3 °C 9.4 °C 1013.1 hPa North 9.3 km/h 6 km/h 94 % 0 mm
05:49 10.3 °C 9.3 °C 1013.1 hPa North 7.4 km/h 4.8 km/h 94 % 0 mm
05:54 10.2 °C 9.3 °C 1013.1 hPa North 7.4 km/h 5.8 km/h 94 % 0 mm
05:59 10.1 °C 9.2 °C 1013.1 hPa NNW 5.6 km/h 4.5 km/h 94 % 0 mm
06:04 10 °C 8.9 °C 1013.1 hPa NNW 3.7 km/h 2.1 km/h 93 % 0 mm
06:09 9.9 °C 8.9 °C 1013.1 hPa NNW 5.6 km/h 3.1 km/h 93 % 0 mm
06:14 9.8 °C 8.7 °C 1013.1 hPa NNW 5.6 km/h 4 km/h 93 % 0 mm
06:19 9.7 °C 8.6 °C 1013.1 hPa NNW 5.6 km/h 3.7 km/h 93 % 0 mm
06:24 9.6 °C 8.5 °C 1013.1 hPa NNW 5.6 km/h 3.2 km/h 93 % 0 mm
06:29 9.4 °C 8.4 °C 1013.1 hPa North 7.4 km/h 5.8 km/h 93 % 0 mm
06:34 9.5 °C 8.6 °C 1013.1 hPa North 18.5 km/h 7.1 km/h 94 % 0 mm
06:39 9.5 °C 8.4 °C 1013.1 hPa North 7.4 km/h 5 km/h 93 % 0 mm
06:44 9.5 °C 8.4 °C 1013.4 hPa North 7.4 km/h 3.2 km/h 93 % 0 mm
06:49 9.4 °C 8.4 °C 1013.1 hPa North 5.6 km/h 5.5 km/h 93 % 0 mm
06:54 9.4 °C 8.3 °C 1013.4 hPa North 5.6 km/h 3.7 km/h 93 % 0 mm
06:59 9.4 °C 8.5 °C 1013.1 hPa North 7.4 km/h 4.2 km/h 94 % 0 mm
07:04 9.6 °C 8.6 °C 1013.1 hPa North 5.6 km/h 2.9 km/h 94 % 0 mm
07:09 9.7 °C 8.6 °C 1013.1 hPa North 5.6 km/h 2.9 km/h 93 % 0 mm
07:14 9.7 °C 8.8 °C 1013.1 hPa North 3.7 km/h 2.7 km/h 94 % 0 mm
07:19 9.9 °C 8.9 °C 1013.1 hPa North 6.4 km/h 3.9 km/h 94 % 0 mm
07:24 10.1 °C 9.2 °C 1013.1 hPa North 7.4 km/h 5.1 km/h 94 % 0 mm
07:29 10.3 °C 9.3 °C 1013.1 hPa North 5.6 km/h 5.3 km/h 94 % 0 mm
07:34 10.6 °C 9.7 °C 1013.1 hPa North 5.6 km/h 4.8 km/h 94 % 0 mm
07:39 11 °C 10.1 °C 1013.1 hPa North 7.4 km/h 7.7 km/h 94 % 0 mm
07:44 11.3 °C 10.2 °C 1013.1 hPa North 13 km/h 7.2 km/h 93 % 0 mm
07:49 11.6 °C 10.3 °C 1013.1 hPa North 11.1 km/h 8.7 km/h 92 % 0 mm
07:54 11.8 °C 10.2 °C 1013.1 hPa North 11.1 km/h 6.4 km/h 90 % 0 mm
07:59 12 °C 10.4 °C 1013.1 hPa North 14.8 km/h 9 km/h 90 % 0 mm
08:04 12.1 °C 10.3 °C 1013.1 hPa North 11.1 km/h 6.9 km/h 89 % 0 mm
08:09 12.1 °C 10.3 °C 1013.1 hPa North 13 km/h 10.3 km/h 89 % 0 mm
08:14 12.2 °C 10.3 °C 1013.1 hPa NNW 16.7 km/h 10.9 km/h 88 % 0 mm
08:19 12.4 °C 10.4 °C 1013.1 hPa NNW 13 km/h 10 km/h 88 % 0 mm
08:24 12.5 °C 10.4 °C 1013.1 hPa NNW 13 km/h 8.5 km/h 87 % 0 mm
08:29 12.6 °C 10.5 °C 1013.4 hPa NNW 16.7 km/h 10.1 km/h 87 % 0 mm
08:34 12.7 °C 10.4 °C 1013.4 hPa NNW 16.7 km/h 9.2 km/h 86 % 0 mm
08:39 12.8 °C 10.5 °C 1013.4 hPa North 20.4 km/h 10.3 km/h 86 % 0 mm
08:42 12.8 °C 10.6 °C 1013.4 hPa NNW 18.5 km/h 9.5 km/h 86 % 0 mm
12:44 23 °C 9.1 °C 1009.4 hPa North 30.6 km/h   41 % 0 mm
12:49 23 °C 10.1 °C 1009.4 hPa North 18.5 km/h 15.6 km/h 44 % 0 mm
12:54 23.1 °C 9.5 °C 1009.4 hPa North 35.2 km/h 29.1 km/h 42 % 0 mm
12:59 23.4 °C 9.4 °C 1008.7 hPa North 24.1 km/h 18.3 km/h 41 % 0 mm
13:04 24.2 °C 9.7 °C 1008.7 hPa North 29.6 km/h 18 km/h 40 % 0 mm
13:09 24.1 °C 9.6 °C 1009 hPa NE 40.7 km/h 20.1 km/h 40 % 0 mm
13:14 23.9 °C 9.5 °C 1009 hPa NNE 32.2 km/h 26.4 km/h 40 % 0 mm
13:19 24.1 °C 10.1 °C 1008.7 hPa North 35.2 km/h 22.7 km/h 41 % 0 mm
13:24 24.3 °C 9.8 °C 1008.7 hPa North 24.1 km/h 15.6 km/h 40 % 0 mm
13:29 24.3 °C 9.9 °C 1008.7 hPa NNW 25.9 km/h 15.8 km/h 40 % 0 mm
13:34 24.3 °C 8.7 °C 1008.7 hPa North 37 km/h 25.1 km/h 37 % 0 mm
13:39 24.4 °C 9.2 °C 1008.7 hPa North 20.9 km/h 17.5 km/h 38 % 0 mm
13:44 24.6 °C 8.9 °C 1008.4 hPa North 31.5 km/h 19.5 km/h 37 % 0 mm
13:49 24.7 °C 8.7 °C 1008.4 hPa North 18.5 km/h 14.6 km/h 36 % 0 mm
13:54 25 °C 8.4 °C 1008 hPa NNW 31.5 km/h 16.6 km/h 35 % 0 mm
13:59 25.4 °C 8.4 °C 1008 hPa NNW 31.5 km/h 15.6 km/h 34 % 0 mm
14:04 25.9 °C 7.9 °C 1008 hPa NW 25.9 km/h 15.1 km/h 32 % 0 mm
14:09 25.9 °C 8.8 °C 1007.7 hPa North 20.4 km/h 12.7 km/h 34 % 0 mm
14:14 26.1 °C 7.1 °C 1008 hPa North 42.6 km/h 31.9 km/h 30 % 0 mm
14:19 25.6 °C 7.2 °C 1008 hPa North 48.1 km/h 23.8 km/h 31 % 0 mm
14:24 25.5 °C 7.6 °C 1007.7 hPa North 33.3 km/h 17.9 km/h 32 % 0 mm
14:29 25.6 °C 7.7 °C 1007.7 hPa NNE 27.4 km/h 21.6 km/h 32 % 0 mm
14:34 25.6 °C 7.2 °C 1007.7 hPa North 27.8 km/h 24 km/h 31 % 0 mm
14:39 25.7 °C 7.8 °C 1008 hPa North 37 km/h 20.9 km/h 32 % 0 mm
14:44 25.8 °C 7.4 °C 1008 hPa North 37 km/h 22 km/h 31 % 0 mm
14:49 26.1 °C 7.1 °C 1008 hPa NNE 35.2 km/h 27.2 km/h 30 % 0 mm
14:54 26.1 °C 7.7 °C 1007.3 hPa NNE 24.1 km/h 15.4 km/h 31 % 0 mm
14:59 26.1 °C 6.7 °C 1007.3 hPa North 31.5 km/h 18.8 km/h 29 % 0 mm
15:04 26 °C 6.6 °C 1007.3 hPa NNW 24.1 km/h 15.8 km/h 29 % 0 mm
15:09 25.9 °C 7 °C 1007.3 hPa North 24.1 km/h 13.5 km/h 30 % 0 mm
15:14 25.8 °C 5.9 °C 1007 hPa North 25.9 km/h 17.5 km/h 28 % 0 mm
15:19 25.7 °C 5.8 °C 1007 hPa North 31.5 km/h 18.8 km/h 28 % 0 mm
15:24 25.7 °C 6.8 °C 1006.7 hPa NNE 22.2 km/h 11.4 km/h 30 % 0 mm
15:29 25.7 °C 6.3 °C 1006.7 hPa NNE 18.5 km/h 10.9 km/h 29 % 0 mm
15:34 25.7 °C 6.3 °C 1006.3 hPa NE 22.2 km/h 17.2 km/h 29 % 0 mm
15:39 25.7 °C 6.3 °C 1006.3 hPa North 31.5 km/h 10.5 km/h 29 % 0 mm
15:44 25.8 °C 6.9 °C 1006.3 hPa NNE 18.5 km/h 8.5 km/h 30 % 0 mm
15:49 25.9 °C 6 °C 1006.3 hPa North 29.6 km/h 19.8 km/h 28 % 0 mm
15:54 26 °C 5.6 °C 1006.3 hPa NNW 24.1 km/h 15.6 km/h 27 % 0 mm
15:59 26.1 °C 5.1 °C 1006.3 hPa NNW 31.5 km/h 18.3 km/h 26 % 0 mm
16:04 26.1 °C 5.1 °C 1006.3 hPa NNE 27.8 km/h 15.1 km/h 26 % 0 mm
16:09 26.1 °C 5.1 °C 1006.3 hPa NNE 27.8 km/h 15.1 km/h 26 % 0 mm
16:14 26.1 °C 5.1 °C 1006 hPa North 20.4 km/h 13.2 km/h 26 % 0 mm
16:19 26.1 °C 5.1 °C 1006.3 hPa NNW 22.5 km/h 18.8 km/h 26 % 0 mm
16:24 26.1 °C 5.7 °C 1006.3 hPa NNW 19.3 km/h 11.9 km/h 27 % 0 mm
16:29 26.1 °C 4.6 °C 1006.3 hPa North 31.5 km/h 16.6 km/h 25 % 0 mm
16:34 26.2 °C 5.2 °C 1006.3 hPa NNE 25.9 km/h 8 km/h 26 % 0 mm
16:39 26.2 °C 5.2 °C 1006.3 hPa North 25.9 km/h 17.4 km/h 26 % 0 mm
16:44 26.3 °C 5.3 °C 1006.3 hPa North 20.4 km/h 11.1 km/h 26 % 0 mm
16:49 26.4 °C 5.3 °C 1006.3 hPa NNE 20.9 km/h 18.7 km/h 26 % 0 mm
16:54 26.3 °C 5.8 °C 1006 hPa North 18.5 km/h 12.9 km/h 27 % 0 mm
16:59 26.3 °C 5.8 °C 1006 hPa North 22.2 km/h 7.2 km/h 27 % 0 mm
17:04 26.3 °C 5.8 °C 1006 hPa North 18.5 km/h 6.4 km/h 27 % 0 mm
17:09 26.2 °C 5.7 °C 1006 hPa North 14.5 km/h 9.5 km/h 27 % 0 mm
17:14 26.2 °C 5.7 °C 1006 hPa NNE 20.4 km/h 12.4 km/h 27 % 0 mm
17:19 26.2 °C 5.7 °C 1006 hPa NNE 20.4 km/h 14 km/h 27 % 0 mm
17:24 26.2 °C 6.2 °C 1005.6 hPa NNE 11.1 km/h 7.7 km/h 28 % 0 mm
17:29 26.2 °C 6.2 °C 1005.6 hPa NNE 16.7 km/h 10.1 km/h 28 % 0 mm
17:34 26.2 °C 5.7 °C 1005.6 hPa NNE 18.5 km/h 16.3 km/h 27 % 0 mm
17:39 26.2 °C 5.7 °C 1005.3 hPa NNE 22.2 km/h 15 km/h 27 % 0 mm
17:44 26.2 °C 5.7 °C 1005.6 hPa North 20.4 km/h 14.6 km/h 27 % 0 mm
17:49 26.1 °C 6.2 °C 1005.3 hPa North 17.7 km/h 13.8 km/h 28 % 0 mm
17:54 26.1 °C 6.2 °C 1005.3 hPa NNE 13 km/h 11.6 km/h 28 % 0 mm
17:59 26.1 °C 5.7 °C 1005 hPa NNE 22.2 km/h 17.4 km/h 27 % 0 mm
18:04 26.1 °C 6.2 °C 1005 hPa North 24.1 km/h 12.2 km/h 28 % 0 mm
18:09 26.2 °C 6.2 °C 1005 hPa NNE 22.2 km/h 12.1 km/h 28 % 0 mm
18:14 26.1 °C 6.2 °C 1005 hPa North 18.5 km/h 12.2 km/h 28 % 0 mm
18:19 26 °C 6.1 °C 1005 hPa North 16.1 km/h 9.8 km/h 28 % 0 mm
18:24 25.9 °C 6.5 °C 1005 hPa North 18.5 km/h 6.3 km/h 29 % 0 mm
18:29 25.8 °C 6.4 °C 1005 hPa North 14.8 km/h 8.2 km/h 29 % 0 mm
18:34 25.7 °C 6.3 °C 1004.6 hPa North 14.8 km/h 13.4 km/h 29 % 0 mm
18:39 25.6 °C 6.7 °C 1004.6 hPa North 14.8 km/h 6.9 km/h 30 % 0 mm
18:44 25.5 °C 6.7 °C 1004.6 hPa North 11.1 km/h 4.7 km/h 30 % 0 mm
18:49 25.4 °C 6.6 °C 1004.6 hPa North 14.8 km/h 9.5 km/h 30 % 0 mm
18:54 25.3 °C 6.4 °C 1004.6 hPa North 14.8 km/h 10.6 km/h 30 % 0 mm
18:59 25.2 °C 6.4 °C 1004.6 hPa North 11.3 km/h 5.6 km/h 30 % 0 mm
19:04 25.2 °C 6.3 °C 1004.6 hPa North 8 km/h 4.8 km/h 30 % 0 mm
19:09 25.1 °C 6.3 °C 1004.6 hPa North 5.6 km/h 6.8 km/h 30 % 0 mm
19:14 25 °C 6.2 °C 1005 hPa North 7.4 km/h 5.6 km/h 30 % 0 mm
19:19 24.9 °C 6.1 °C 1005 hPa North 11.1 km/h 6.8 km/h 30 % 0 mm
19:24 24.8 °C 6.1 °C 1005 hPa NE 13 km/h 13 km/h 30 % 0 mm
19:29 25.6 °C 4.6 °C 1004.6 hPa North 31.5 km/h 15.9 km/h 26 % 0 mm
19:34 25.7 °C 5.3 °C 1004.6 hPa North 18.5 km/h 10.1 km/h 27 % 0 mm
19:39 25.5 °C 5.7 °C 1004.3 hPa NNW 9.3 km/h 7.1 km/h 28 % 0 mm
19:44 25.3 °C 5.4 °C 1004.6 hPa NNW 13 km/h 7.9 km/h 28 % 0 mm
19:49 25.1 °C 5.3 °C 1004.6 hPa NNW 7.4 km/h 6.9 km/h 28 % 0 mm
19:54 24.9 °C 5.6 °C 1004.6 hPa NNW 11.1 km/h 5.6 km/h 29 % 0 mm
19:59 24.7 °C 5.9 °C 1005 hPa NNW 13 km/h 9.8 km/h 30 % 0 mm
20:04 24.6 °C 5.8 °C 1005 hPa NNW 9.3 km/h 7.2 km/h 30 % 0 mm
20:09 24.4 °C 6.2 °C 1005.3 hPa NNW 13 km/h 8.2 km/h 31 % 0 mm
20:14 24.2 °C 6 °C 1005.6 hPa NNW 13 km/h 8.9 km/h 31 % 0 mm
20:19 24.2 °C 5.9 °C 1005.6 hPa North 24.1 km/h 16.6 km/h 31 % 0 mm
20:24 24.2 °C 6 °C 1005 hPa NNE 19.3 km/h 13.7 km/h 31 % 0 mm
20:29 24.3 °C 6.1 °C 1005 hPa North 13 km/h 12.2 km/h 31 % 0 mm
20:34 24.4 °C 6.2 °C 1005.3 hPa North 13 km/h 13.4 km/h 31 % 0 mm
20:39 24.5 °C 6.3 °C 1006 hPa NW 16.7 km/h 15.6 km/h 31 % 0 mm
20:44 24.4 °C 6.2 °C 1006 hPa NW 16.7 km/h 15.8 km/h 31 % 0 mm
20:49 24.6 °C 6.3 °C 1006 hPa NNW 24.1 km/h 8 km/h 31 % 0 mm
20:54 24.7 °C 5.9 °C 1006.3 hPa NNW 29.6 km/h 16.6 km/h 30 % 0 mm
20:59 24.8 °C 5.6 °C 1006.7 hPa NW 31.5 km/h 28.2 km/h 29 % 0 mm
21:04 24.4 °C 7.5 °C 1006.7 hPa North 31.5 km/h 12.4 km/h 34 % 0 mm
21:09 23.9 °C 7.1 °C 1006.7 hPa North 24.1 km/h 17.2 km/h 34 % 0 mm
21:14 23.8 °C 6.6 °C 1006.7 hPa NNW 24.1 km/h 14.3 km/h 33 % 0 mm
21:19 23.9 °C 6.7 °C 1006.3 hPa NNW 16.7 km/h 7.7 km/h 33 % 0 mm
21:24 23.9 °C 6.7 °C 1006.7 hPa NW 18.5 km/h 12.2 km/h 33 % 0 mm
21:29 24.4 °C 6.2 °C 1007 hPa NNW 25.9 km/h 14.8 km/h 31 % 0 mm
21:34 23.6 °C 6.8 °C 1006.3 hPa WNW 43.5 km/h 39.3 km/h 34 % 0 mm
21:39 23.1 °C 6.4 °C 1006.7 hPa NW 31.5 km/h 19.8 km/h 34 % 0 mm
21:44 23.2 °C 6.4 °C 1007 hPa NW 33.3 km/h 25.9 km/h 34 % 0 mm
21:49 23.5 °C 6.3 °C 1007 hPa NNW 42.6 km/h 30.9 km/h 33 % 0 mm
21:54 23.7 °C 6.4 °C 1006.7 hPa NNW 22.2 km/h 11.7 km/h 33 % 0 mm
21:59 23.5 °C 6.3 °C 1006.7 hPa North 27.8 km/h 18.5 km/h 33 % 0 mm
22:04 23.4 °C 6.2 °C 1006.7 hPa NNW 24.1 km/h 15.4 km/h 33 % 0 mm
22:09 23.2 °C 6.5 °C 1006.3 hPa North 13 km/h 11.6 km/h 34 % 0 mm
22:14 23 °C 6.7 °C 1006.3 hPa North 9.3 km/h 6.3 km/h 35 % 0 mm
22:19 22.7 °C 6.4 °C 1006 hPa North 5.6 km/h 3.5 km/h 35 % 0 mm
22:24 22.5 °C 6.7 °C 1006 hPa North 5.6 km/h 5.5 km/h 36 % 0 mm
22:29 22.3 °C 6.6 °C 1005.6 hPa North 5.6 km/h 4.5 km/h 36 % 0 mm
22:34 22.2 °C 6.8 °C 1005.6 hPa North 8 km/h 4.3 km/h 37 % 0 mm
22:39 22.1 °C 6.7 °C 1005.6 hPa North 8 km/h 5.1 km/h 37 % 0 mm
22:44 21.9 °C 6.6 °C 1005.6 hPa North 7.4 km/h 3.9 km/h 37 % 0 mm
22:49 21.9 °C 6.6 °C 1005.6 hPa North 6.4 km/h 6 km/h 37 % 0 mm
22:54 21.8 °C 6.5 °C 1005.3 hPa North 5.6 km/h 2.9 km/h 37 % 0 mm
22:59 21.8 °C 6.4 °C 1005 hPa North 7.4 km/h 6 km/h 37 % 0 mm
23:04 21.8 °C 6.5 °C 1005.3 hPa North 13 km/h 7.2 km/h 37 % 0 mm
23:09 21.9 °C 6.6 °C 1005.3 hPa North 13 km/h 9.2 km/h 37 % 0 mm
23:14 22.1 °C 6.3 °C 1005.6 hPa North 13 km/h 7.9 km/h 36 % 0 mm
23:19 22.2 °C 7.2 °C 1005.6 hPa WNW 16.7 km/h 10.9 km/h 38 % 0 mm
23:24 22 °C 6.6 °C 1005.6 hPa NW 9.7 km/h 7.4 km/h 37 % 0 mm
23:29 22.2 °C 6 °C 1005.6 hPa NW 18.5 km/h 13.4 km/h 35 % 0 mm
23:34 22.7 °C 6.1 °C 1005.6 hPa WNW 16.7 km/h 9.3 km/h 34 % 0 mm
23:39 22.7 °C 6.4 °C 1006 hPa West 20.4 km/h 16.1 km/h 35 % 0 mm
23:44 22.4 °C 6.6 °C 1006 hPa West 18.5 km/h 11.6 km/h 36 % 0 mm
23:49 22.1 °C 6.7 °C 1006.3 hPa WNW 18.5 km/h 14.6 km/h 37 % 0 mm
23:54 21.9 °C 6.9 °C 1006.7 hPa WNW 17.7 km/h 11.3 km/h 38 % 0 mm
23:59 21.8 °C 7.3 °C 1006.3 hPa WNW 18.5 km/h 9.5 km/h 39 % 0 mm
Ararat Weather
Compliments of Weather Underground - 2 mb
Click here to send mail.


ABOUT

Live weather data from Ararat, Victoria, Australia, 3377
Data uploaded from Cumulus every 5 minutes to Weather Underground.
This site then downloads the raw data for formatting and display.
Metric and imperial data can be displayed. Graphs and historical data available.
Includes Sun and Moon times and rain image live from BOM.

Check out Ararat Weather on Facebook, Twitter and Google +

Help support ongoing costs by checking out the ads





Follow @AraratWeather